createdAt,value
2022-12-03T00:01:20.769Z,101863.77
2022-12-03T00:03:52.462Z,101866.89
2022-12-03T00:06:24.125Z,101864.44
2022-12-03T00:08:54.938Z,101863.74
2022-12-03T00:11:25.354Z,101858.59
2022-12-03T00:13:55.877Z,101862.19
2022-12-03T00:16:26.431Z,101863.16
2022-12-03T00:18:58.487Z,101865.59
2022-12-03T00:21:28.976Z,101855.33
2022-12-03T00:24:00.959Z,101863.18
2022-12-03T00:26:31.439Z,101856.21
2022-12-03T00:29:01.884Z,101853.66
2022-12-03T00:31:33.762Z,101860.66
2022-12-03T00:34:04.239Z,101860.60
2022-12-03T00:36:34.796Z,101853.84
2022-12-03T00:39:05.710Z,101842.37
2022-12-03T00:41:37.400Z,101852.06
2022-12-03T00:44:07.970Z,101847.84
2022-12-03T00:46:38.759Z,101852.16
2022-12-03T00:49:10.581Z,101845.91
2022-12-03T00:51:41.035Z,101845.91
2022-12-03T00:54:11.564Z,101846.81
2022-12-03T00:56:41.972Z,101849.45
2022-12-03T00:59:12.580Z,101852.03
2022-12-03T01:01:43.018Z,101845.19
2022-12-03T01:04:14.889Z,101854.75
2022-12-03T01:06:46.519Z,101851.16
2022-12-03T01:09:17.085Z,101846.90
2022-12-03T01:11:47.546Z,101847.66
2022-12-03T01:14:20.873Z,101855.55
2022-12-03T01:16:51.360Z,101848.56
2022-12-03T01:19:21.896Z,101842.39
2022-12-03T01:21:53.233Z,101845.01
2022-12-03T01:24:23.908Z,101842.70
2022-12-03T01:26:56.062Z,101842.43
2022-12-03T01:29:26.952Z,101842.70
2022-12-03T01:32:15.088Z,101847.78
2022-12-03T01:34:52.688Z,101847.09
2022-12-03T01:37:27.172Z,101842.87
2022-12-03T01:39:58.012Z,101839.94
2022-12-03T01:42:31.315Z,101841.22
2022-12-03T01:45:04.281Z,101817.91
2022-12-03T01:47:39.040Z,101819.69
2022-12-03T01:50:15.944Z,101832.21
2022-12-03T01:52:47.054Z,101832.92
2022-12-03T01:55:20.405Z,101828.67
2022-12-03T01:57:53.853Z,101837.56
2022-12-03T02:00:30.451Z,101831.11
2022-12-03T02:03:07.060Z,101827.00
2022-12-03T02:05:38.973Z,101828.56
2022-12-03T02:08:30.464Z,101814.42
2022-12-03T02:11:09.610Z,101819.69
2022-12-03T02:13:40.088Z,101819.72
2022-12-03T02:16:11.428Z,101817.14
2022-12-03T02:18:42.597Z,101818.70
2022-12-03T02:21:30.934Z,101817.64
2022-12-03T02:24:36.286Z,101819.86
2022-12-03T02:27:07.461Z,101811.84
2022-12-03T02:29:37.913Z,101812.01
2022-12-03T02:32:08.581Z,101814.56
2022-12-03T02:34:44.664Z,101812.09
2022-12-03T02:37:20.565Z,101807.76
2022-12-03T02:39:53.947Z,101810.73
2022-12-03T02:42:38.093Z,101802.07
2022-12-03T02:45:15.271Z,101802.20
2022-12-03T02:47:54.779Z,101800.55
2022-12-03T02:50:28.173Z,101807.42
2022-12-03T02:53:01.115Z,101803.25
2022-12-03T02:55:37.107Z,101809.17
2022-12-03T02:58:07.468Z,101807.56
2022-12-03T03:00:38.936Z,101804.64
2022-12-03T03:03:10.504Z,101812.78
2022-12-03T03:05:42.202Z,101814.78
2022-12-03T03:08:13.661Z,101808.58
2022-12-03T03:10:45.704Z,101808.09
2022-12-03T03:13:18.918Z,101810.39
2022-12-03T03:15:50.029Z,101803.45
2022-12-03T03:18:20.636Z,101799.80
2022-12-03T03:20:51.993Z,101804.02
2022-12-03T03:23:25.478Z,101800.63
2022-12-03T03:26:05.670Z,101807.28
2022-12-03T03:28:39.125Z,101800.48
2022-12-03T03:31:13.735Z,101807.16
2022-12-03T03:33:46.821Z,101807.51
2022-12-03T03:36:17.871Z,101805.44
2022-12-03T03:38:48.921Z,101804.73
2022-12-03T03:41:21.017Z,101803.23
2022-12-03T03:43:51.804Z,101804.08
2022-12-03T03:46:23.023Z,101801.45
2022-12-03T03:48:54.653Z,101804.05
2022-12-03T03:51:25.125Z,101811.41
2022-12-03T03:53:56.116Z,101802.23
2022-12-03T03:56:28.404Z,101801.73
2022-12-03T03:58:59.307Z,101802.62
2022-12-03T04:01:30.134Z,101801.82
2022-12-03T04:04:02.064Z,101801.11
2022-12-03T04:06:33.644Z,101792.08
2022-12-03T04:09:05.268Z,101797.40
2022-12-03T04:11:53.607Z,101798.76
2022-12-03T04:14:25.369Z,101784.31
2022-12-03T04:16:55.989Z,101790.94
2022-12-03T04:19:26.559Z,101799.08
2022-12-03T04:22:15.091Z,101789.98
2022-12-03T04:24:45.632Z,101788.95
2022-12-03T04:27:35.084Z,101789.83
2022-12-03T04:30:05.909Z,101784.04
2022-12-03T04:32:54.482Z,101784.35
2022-12-03T04:35:43.418Z,101788.59
2022-12-03T04:38:16.377Z,101787.30
2022-12-03T04:41:02.007Z,101782.36
2022-12-03T04:43:32.997Z,101781.48
2022-12-03T04:46:03.955Z,101773.75
2022-12-03T04:48:34.426Z,101775.28
2022-12-03T04:51:04.942Z,101775.13
2022-12-03T04:53:36.438Z,101770.53
2022-12-03T04:56:08.403Z,101774.61
2022-12-03T04:58:38.874Z,101771.54
2022-12-03T05:01:10.040Z,101762.41
2022-12-03T05:03:40.517Z,101767.12
2022-12-03T05:06:11.313Z,101757.41
2022-12-03T05:08:41.798Z,101762.64
2022-12-03T05:11:12.316Z,101760.55
2022-12-03T05:13:43.276Z,101762.52
2022-12-03T05:16:13.950Z,101756.47
2022-12-03T05:18:44.481Z,101759.03
2022-12-03T05:21:14.899Z,101755.33
2022-12-03T05:23:45.363Z,101760.91
2022-12-03T05:26:16.145Z,101756.16
2022-12-03T05:28:46.698Z,101754.63
2022-12-03T05:31:17.388Z,101756.38
2022-12-03T05:33:47.837Z,101747.59
2022-12-03T05:36:18.315Z,101747.39
2022-12-03T05:38:48.970Z,101755.91
2022-12-03T05:41:37.283Z,101749.84
2022-12-03T05:44:07.761Z,101751.69
2022-12-03T05:46:38.312Z,101751.01
2022-12-03T05:49:08.766Z,101751.02
2022-12-03T05:51:39.265Z,101744.81
2022-12-03T05:54:10.874Z,101742.73
2022-12-03T05:56:42.587Z,101736.78
2022-12-03T05:59:13.068Z,101741.30
2022-12-03T06:01:44.732Z,101738.37
2022-12-03T06:04:15.124Z,101741.36
2022-12-03T06:06:46.722Z,101738.04
2022-12-03T06:09:18.205Z,101742.55
2022-12-03T06:11:51.535Z,101741.66
2022-12-03T06:14:22.725Z,101740.62
2022-12-03T06:16:54.521Z,101740.76
2022-12-03T06:19:24.914Z,101739.09
2022-12-03T06:21:55.792Z,101746.10
2022-12-03T06:24:26.114Z,101752.97
2022-12-03T06:26:56.518Z,101752.25
2022-12-03T06:29:26.994Z,101753.88
2022-12-03T06:31:57.510Z,101751.20
2022-12-03T06:34:28.000Z,101758.41
2022-12-03T06:36:58.611Z,101757.42
2022-12-03T06:39:29.198Z,101754.76
2022-12-03T06:41:59.672Z,101753.17
2022-12-03T06:44:30.084Z,101757.55
2022-12-03T06:47:00.671Z,101751.37
2022-12-03T06:49:31.147Z,101756.73
2022-12-03T06:52:02.973Z,101760.14
2022-12-03T06:54:33.480Z,101761.21
2022-12-03T06:57:04.080Z,101758.51
2022-12-03T06:59:36.263Z,101762.03
2022-12-03T07:02:08.003Z,101767.35
2022-12-03T07:04:42.127Z,101754.12
2022-12-03T07:07:11.832Z,101757.55
2022-12-03T07:09:42.345Z,101754.95
2022-12-03T07:12:12.834Z,101752.41
2022-12-03T07:14:43.350Z,101756.81
2022-12-03T07:17:13.765Z,101756.81
2022-12-03T07:19:44.315Z,101756.79
2022-12-03T07:22:14.772Z,101755.87
2022-12-03T07:24:47.189Z,101751.52
2022-12-03T07:27:17.686Z,101741.92
2022-12-03T07:29:48.256Z,101740.17
2022-12-03T07:32:18.745Z,101739.29
2022-12-03T07:34:49.280Z,101738.41
2022-12-03T07:37:23.037Z,101727.02
2022-12-03T07:39:52.728Z,101728.80
2022-12-03T07:42:23.089Z,101729.64
2022-12-03T07:44:53.903Z,101733.20
2022-12-03T07:47:24.662Z,101734.08
2022-12-03T07:49:55.299Z,101728.97
2022-12-03T07:52:25.798Z,101724.52
2022-12-03T07:54:56.572Z,101729.80
2022-12-03T07:57:27.265Z,101728.89
2022-12-03T07:59:58.998Z,101724.40
2022-12-03T08:02:29.483Z,101725.28
2022-12-03T08:05:00.012Z,101726.23
2022-12-03T08:07:30.573Z,101727.12
2022-12-03T08:10:01.132Z,101725.37
2022-12-03T08:12:42.841Z,101725.42
2022-12-03T08:15:24.645Z,101729.89
2022-12-03T08:18:00.031Z,101721.08
2022-12-03T08:20:30.914Z,101718.46
2022-12-03T08:23:02.644Z,101710.95
2022-12-03T08:25:34.778Z,101723.14
2022-12-03T08:28:21.539Z,101722.09
2022-12-03T08:30:58.636Z,101717.66
2022-12-03T08:33:33.725Z,101717.25
2022-12-03T08:36:10.813Z,101710.79
2022-12-03T08:38:41.128Z,101723.50
2022-12-03T08:41:18.338Z,101714.48
2022-12-03T08:43:49.893Z,101721.39
2022-12-03T08:46:21.032Z,101727.55
2022-12-03T08:48:52.617Z,101729.25
2022-12-03T08:51:28.430Z,101741.50
2022-12-03T08:54:07.151Z,101727.48
2022-12-03T08:56:38.868Z,101742.47
2022-12-03T08:59:21.319Z,101736.25
2022-12-03T09:01:53.864Z,101735.48
2022-12-03T09:04:40.769Z,101729.95
2022-12-03T09:07:11.272Z,101729.36
2022-12-03T09:09:41.726Z,101727.72
2022-12-03T09:12:13.570Z,101724.09
2022-12-03T09:14:44.036Z,101723.34
2022-12-03T09:17:14.423Z,101729.44
2022-12-03T09:19:46.498Z,101723.17
2022-12-03T09:22:17.610Z,101720.73
2022-12-03T09:24:48.159Z,101724.17
2022-12-03T09:27:18.900Z,101717.16
2022-12-03T09:29:51.407Z,101718.16
2022-12-03T09:32:22.008Z,101720.66
2022-12-03T09:34:52.857Z,101716.83
2022-12-03T09:37:24.796Z,101712.83
2022-12-03T09:39:55.193Z,101712.00
2022-12-03T09:42:27.267Z,101712.95
2022-12-03T09:44:57.765Z,101712.07
2022-12-03T09:47:29.918Z,101708.55
2022-12-03T09:50:01.174Z,101709.45
2022-12-03T09:52:34.983Z,101705.94
2022-12-03T09:55:15.477Z,101701.52
2022-12-03T09:57:46.047Z,101696.28
2022-12-03T10:00:23.559Z,101699.76
2022-12-03T10:02:56.743Z,101699.88
2022-12-03T10:05:27.613Z,101685.84
2022-12-03T10:08:02.268Z,101684.80
2022-12-03T10:10:32.852Z,101682.20
2022-12-03T10:13:04.280Z,101691.79
2022-12-03T10:15:37.907Z,101683.96
2022-12-03T10:18:14.053Z,101688.02
2022-12-03T10:20:44.681Z,101687.22
2022-12-03T10:23:27.629Z,101682.95
2022-12-03T10:26:03.921Z,101678.62
2022-12-03T10:28:37.282Z,101683.89
2022-12-03T10:31:11.723Z,101670.61
2022-12-03T10:33:45.249Z,101664.41
2022-12-03T10:36:27.707Z,101668.97
2022-12-03T10:39:13.044Z,101669.80
2022-12-03T10:41:45.680Z,101661.95
2022-12-03T10:44:21.926Z,101662.72
2022-12-03T10:47:10.702Z,101658.25
2022-12-03T10:49:45.264Z,101658.16
2022-12-03T10:52:24.075Z,101654.64
2022-12-03T10:54:52.380Z,101652.03
2022-12-03T10:57:25.821Z,101655.33
2022-12-03T10:59:56.295Z,101650.11
2022-12-03T11:02:27.188Z,101639.47
2022-12-03T11:04:57.718Z,101638.00
2022-12-03T11:07:29.712Z,101645.78
2022-12-03T11:10:01.952Z,101643.05
2022-12-03T11:12:35.785Z,101639.70
2022-12-03T11:15:08.070Z,101631.84
2022-12-03T11:17:45.300Z,101641.41
2022-12-03T11:20:22.626Z,101633.28
2022-12-03T11:22:52.982Z,101636.00
2022-12-03T11:25:32.340Z,101638.62
2022-12-03T11:28:17.993Z,101642.23
2022-12-03T11:30:56.822Z,101625.45
2022-12-03T11:33:44.791Z,101629.98
2022-12-03T11:36:31.554Z,101626.59
2022-12-03T11:38:54.651Z,101627.54
2022-12-03T11:41:30.965Z,101627.37
2022-12-03T11:44:23.473Z,101627.27
2022-12-03T11:46:54.444Z,101622.80
2022-12-03T11:49:30.832Z,101635.23
2022-12-03T11:52:04.484Z,101631.34
2022-12-03T11:54:36.323Z,101631.34
2022-12-03T11:57:09.790Z,101623.67
2022-12-03T11:59:43.512Z,101629.83
2022-12-03T12:02:21.483Z,101625.44
2022-12-03T12:04:52.048Z,101619.28
2022-12-03T12:07:38.634Z,101612.23
2022-12-03T12:10:09.856Z,101620.13
2022-12-03T12:12:51.131Z,101626.31
2022-12-03T12:15:43.570Z,101625.36
2022-12-03T12:18:45.098Z,101619.18
2022-12-03T12:21:43.326Z,101621.11
2022-12-03T12:24:40.743Z,101620.11
2022-12-03T12:27:24.735Z,101615.03
2022-12-03T12:30:01.939Z,101614.11
2022-12-03T12:32:35.271Z,101619.28
2022-12-03T12:35:32.422Z,101623.73
2022-12-03T12:38:12.866Z,101622.67
2022-12-03T12:40:49.280Z,101619.38
2022-12-03T12:43:26.310Z,101613.13
2022-12-03T12:46:05.698Z,101609.22
2022-12-03T12:48:36.337Z,101609.87
2022-12-03T12:51:14.496Z,101613.16
2022-12-03T12:53:46.670Z,101614.00
2022-12-03T12:56:31.585Z,101605.17
2022-12-03T12:59:20.165Z,101603.48
2022-12-03T13:01:51.823Z,101594.83
2022-12-03T13:04:25.227Z,101591.23
2022-12-03T13:06:57.035Z,101596.16
2022-12-03T13:09:28.861Z,101595.50
2022-12-03T13:12:03.361Z,101599.01
2022-12-03T13:14:36.822Z,101593.88
2022-12-03T13:17:18.595Z,101594.65
2022-12-03T13:19:55.887Z,101591.06
2022-12-03T13:22:25.001Z,101593.78
2022-12-03T13:24:58.744Z,101597.34
2022-12-03T13:27:32.870Z,101593.70
2022-12-03T13:30:12.077Z,101590.22
2022-12-03T13:32:44.284Z,101590.31
2022-12-03T13:35:31.365Z,101597.27
2022-12-03T13:38:01.785Z,101591.86
2022-12-03T13:40:36.037Z,101598.09
2022-12-03T13:43:08.309Z,101598.17
2022-12-03T13:45:41.214Z,101595.86
2022-12-03T13:48:26.533Z,101593.66
2022-12-03T13:50:58.834Z,101596.40
2022-12-03T13:53:37.907Z,101596.22
2022-12-03T13:56:17.010Z,101595.31
2022-12-03T13:58:47.523Z,101598.17
2022-12-03T14:01:18.101Z,101591.91
2022-12-03T14:03:50.118Z,101591.00
2022-12-03T14:06:20.946Z,101591.06
2022-12-03T14:08:51.691Z,101591.98
2022-12-03T14:11:41.174Z,101591.92
2022-12-03T14:14:12.982Z,101591.97
2022-12-03T14:16:44.666Z,101600.72
2022-12-03T14:19:15.126Z,101600.81
2022-12-03T14:21:45.539Z,101602.48
2022-12-03T14:24:16.010Z,101597.19
2022-12-03T14:26:46.526Z,101592.75
2022-12-03T14:29:17.015Z,101598.09
2022-12-03T14:31:48.788Z,101584.86
2022-12-03T14:34:19.434Z,101583.21
2022-12-03T14:36:50.003Z,101581.32
2022-12-03T14:39:20.486Z,101583.05
2022-12-03T14:42:08.846Z,101583.05
2022-12-03T14:44:39.294Z,101579.37
2022-12-03T14:47:10.111Z,101583.88
2022-12-03T14:49:41.885Z,101585.66
2022-12-03T14:52:12.949Z,101590.73
2022-12-03T14:54:43.800Z,101594.19
2022-12-03T14:57:16.607Z,101583.08
2022-12-03T14:59:47.263Z,101586.63
2022-12-03T15:02:17.833Z,101589.22
2022-12-03T15:04:48.393Z,101584.81
2022-12-03T15:07:20.227Z,101583.03
2022-12-03T15:09:50.723Z,101578.57
2022-12-03T15:12:21.211Z,101575.95
2022-12-03T15:14:51.792Z,101577.81
2022-12-03T15:17:31.365Z,101576.98
2022-12-03T15:19:56.084Z,101580.43
2022-12-03T15:22:26.870Z,101575.25
2022-12-03T15:24:57.413Z,101583.78
2022-12-03T15:27:27.970Z,101583.83
2022-12-03T15:29:59.727Z,101578.70
2022-12-03T15:32:30.242Z,101577.64
2022-12-03T15:35:00.680Z,101581.88
2022-12-03T15:37:31.225Z,101577.73
2022-12-03T15:40:02.952Z,101587.30
2022-12-03T15:42:33.523Z,101595.97
2022-12-03T15:45:04.428Z,101587.30
2022-12-03T15:47:35.141Z,101593.27
2022-12-03T15:50:06.290Z,101587.22
2022-12-03T15:52:37.860Z,101588.09
2022-12-03T15:55:08.942Z,101584.55
2022-12-03T15:57:39.712Z,101594.30
2022-12-03T16:00:13.082Z,101583.73
2022-12-03T16:02:47.634Z,101584.77
2022-12-03T16:05:16.188Z,101586.58
2022-12-03T16:07:46.912Z,101587.47
2022-12-03T16:10:20.119Z,101587.31
2022-12-03T16:12:50.768Z,101590.82
2022-12-03T16:15:27.054Z,101589.14
2022-12-03T16:17:54.754Z,101583.59
2022-12-03T16:20:25.347Z,101587.31
2022-12-03T16:22:55.959Z,101583.06
2022-12-03T16:25:26.473Z,101584.88
2022-12-03T16:27:57.160Z,101588.28
2022-12-03T16:30:27.803Z,101580.30
2022-12-03T16:32:58.416Z,101593.34
2022-12-03T16:35:29.212Z,101590.82
2022-12-03T16:37:59.793Z,101590.72
2022-12-03T16:40:30.331Z,101589.91
2022-12-03T16:43:00.856Z,101588.30
2022-12-03T16:45:43.037Z,101590.98
2022-12-03T16:48:13.594Z,101583.09
2022-12-03T16:50:45.407Z,101595.26
2022-12-03T16:53:17.154Z,101595.47
2022-12-03T16:55:47.656Z,101604.23
2022-12-03T16:58:21.001Z,101614.82
2022-12-03T17:00:54.417Z,101596.43
2022-12-03T17:03:30.385Z,101592.87
2022-12-03T17:05:57.333Z,101595.61
2022-12-03T17:08:27.873Z,101592.03
2022-12-03T17:10:58.909Z,101596.27
2022-12-03T17:13:29.557Z,101593.83
2022-12-03T17:16:01.008Z,101588.52
2022-12-03T17:18:32.734Z,101592.05
2022-12-03T17:21:03.234Z,101594.69
2022-12-03T17:23:35.004Z,101586.02
2022-12-03T17:26:06.672Z,101589.23
2022-12-03T17:28:37.270Z,101581.46
2022-12-03T17:31:09.026Z,101584.11
2022-12-03T17:33:41.327Z,101584.88
2022-12-03T17:36:12.047Z,101577.96
2022-12-03T17:38:42.465Z,101578.83
2022-12-03T17:41:12.921Z,101580.68
2022-12-03T17:43:43.483Z,101572.75
2022-12-03T17:46:14.106Z,101577.20
2022-12-03T17:48:45.909Z,101568.44
2022-12-03T17:51:16.424Z,101581.48
2022-12-03T17:53:46.887Z,101587.53
2022-12-03T17:56:17.840Z,101574.61
2022-12-03T17:58:48.428Z,101572.87
2022-12-03T18:01:19.031Z,101586.05
2022-12-03T18:03:49.751Z,101586.92
2022-12-03T18:06:21.474Z,101571.92
2022-12-03T18:08:53.129Z,101571.92
2022-12-03T18:11:23.980Z,101576.37
2022-12-03T18:13:54.549Z,101605.16
2022-12-03T18:16:25.094Z,101580.77
2022-12-03T18:18:57.685Z,101589.34
2022-12-03T18:21:28.892Z,101581.65
2022-12-03T18:24:02.506Z,101587.83
2022-12-03T18:26:33.187Z,101583.30
2022-12-03T18:29:03.707Z,101578.23
2022-12-03T18:31:34.265Z,101569.45
2022-12-03T18:34:04.767Z,101563.22
2022-12-03T18:36:36.945Z,101584.27
2022-12-03T18:39:09.491Z,101576.33
2022-12-03T18:41:40.086Z,101590.32
2022-12-03T18:44:12.670Z,101590.33
2022-12-03T18:46:53.332Z,101584.14
2022-12-03T18:49:16.753Z,101575.45
2022-12-03T18:51:48.468Z,101574.63
2022-12-03T18:54:20.656Z,101582.48
2022-12-03T18:56:51.074Z,101576.29
2022-12-03T18:59:21.573Z,101575.41
2022-12-03T19:01:53.276Z,101579.72
2022-12-03T19:04:23.827Z,101577.16
2022-12-03T19:06:55.287Z,101575.42
2022-12-03T19:09:25.750Z,101571.02
2022-12-03T19:11:56.230Z,101571.84
2022-12-03T19:14:27.879Z,101571.00
2022-12-03T19:16:58.411Z,101569.98
2022-12-03T19:19:30.157Z,101567.53
2022-12-03T19:22:00.618Z,101571.08
2022-12-03T19:24:31.045Z,101573.70
2022-12-03T19:27:02.583Z,101572.03
2022-12-03T19:29:34.165Z,101539.21
2022-12-03T19:32:04.834Z,101580.75
2022-12-03T19:34:35.379Z,101588.64
2022-12-03T19:37:06.989Z,101592.20
2022-12-03T19:39:37.610Z,101584.17
2022-12-03T19:42:08.134Z,101579.06
2022-12-03T19:44:39.325Z,101591.39
2022-12-03T19:47:09.717Z,101580.67
2022-12-03T19:49:40.136Z,101580.75
2022-12-03T19:52:10.619Z,101579.96
2022-12-03T19:54:41.148Z,101590.41
2022-12-03T19:57:11.662Z,101588.57
2022-12-03T19:59:43.076Z,101584.28
2022-12-03T20:02:14.044Z,101578.17
2022-12-03T20:04:44.790Z,101574.58
2022-12-03T20:07:16.520Z,101575.52
2022-12-03T20:09:47.051Z,101578.23
2022-12-03T20:12:17.556Z,101572.89
2022-12-03T20:14:48.733Z,101585.27
2022-12-03T20:17:19.195Z,101583.52
2022-12-03T20:19:51.724Z,101583.36
2022-12-03T20:22:22.257Z,101584.45
2022-12-03T20:24:52.789Z,101593.19
2022-12-03T20:27:23.336Z,101581.72
2022-12-03T20:29:54.192Z,101582.59
2022-12-03T20:32:24.844Z,101590.61
2022-12-03T20:34:55.698Z,101583.47
2022-12-03T20:37:26.424Z,101580.03
2022-12-03T20:39:58.152Z,101582.70
2022-12-03T20:42:28.770Z,101582.55
2022-12-03T20:45:00.437Z,101574.80
2022-12-03T20:47:30.864Z,101592.27
2022-12-03T20:50:01.285Z,101587.92
2022-12-03T20:52:31.712Z,101586.97
2022-12-03T20:55:02.253Z,101587.89
2022-12-03T20:57:32.844Z,101591.45
2022-12-03T21:00:08.155Z,101586.22
2022-12-03T21:02:43.344Z,101591.53
2022-12-03T21:05:16.424Z,101587.08
2022-12-03T21:07:49.383Z,101584.42
2022-12-03T21:10:25.426Z,101584.45
2022-12-03T21:12:59.397Z,101585.34
2022-12-03T21:15:31.343Z,101585.35
2022-12-03T21:18:04.403Z,101582.74
2022-12-03T21:20:37.594Z,101581.74
2022-12-03T21:23:10.161Z,101582.61
2022-12-03T21:25:46.129Z,101568.66
2022-12-03T21:28:19.059Z,101578.39
2022-12-03T21:30:52.594Z,101573.98
2022-12-03T21:33:27.484Z,101566.96
2022-12-03T21:36:00.486Z,101581.97
2022-12-03T21:38:33.622Z,101577.55
2022-12-03T21:41:07.081Z,101574.06
2022-12-03T21:43:40.540Z,101570.53
2022-12-03T21:47:09.359Z,101567.89
2022-12-03T21:48:54.140Z,101568.73
2022-12-03T21:51:26.129Z,101576.70
2022-12-03T21:53:59.687Z,101569.64
2022-12-03T21:56:36.317Z,101566.98
2022-12-03T21:59:08.330Z,101573.98
2022-12-03T22:01:46.769Z,101568.73
2022-12-03T22:04:18.240Z,101567.81
2022-12-03T22:06:54.312Z,101566.00
2022-12-03T22:09:27.784Z,101569.59
2022-12-03T22:12:02.068Z,101570.50
2022-12-03T22:14:33.371Z,101571.35
2022-12-03T22:17:06.716Z,101571.39
2022-12-03T22:19:40.474Z,101568.75
2022-12-03T22:22:16.487Z,101558.14
2022-12-03T22:24:50.294Z,101561.67
2022-12-03T22:27:24.403Z,101561.68
2022-12-03T22:29:55.864Z,101561.66
2022-12-03T22:32:27.777Z,101553.75
2022-12-03T22:35:00.502Z,101542.27
2022-12-03T22:37:34.150Z,101551.92
2022-12-03T22:40:08.704Z,101539.63
2022-12-03T22:42:49.312Z,101537.86
2022-12-03T22:45:16.800Z,101529.06
2022-12-03T22:47:52.705Z,101536.97
2022-12-03T22:50:27.597Z,101535.22
2022-12-03T22:52:59.048Z,101528.17
2022-12-03T22:55:31.778Z,101531.70
2022-12-03T22:58:05.426Z,101520.23
2022-12-03T23:00:40.162Z,101523.78
2022-12-03T23:03:11.452Z,101520.23
2022-12-03T23:05:43.830Z,101520.23
2022-12-03T23:08:21.271Z,101529.93
2022-12-03T23:10:54.471Z,101522.88
2022-12-03T23:13:27.193Z,101524.65
2022-12-03T23:15:58.991Z,101519.38
2022-12-03T23:18:35.990Z,101523.77
2022-12-03T23:21:07.540Z,101521.11
2022-12-03T23:23:41.454Z,101521.13
2022-12-03T23:26:15.163Z,101511.42
2022-12-03T23:28:51.847Z,101511.39
2022-12-03T23:31:30.303Z,101501.72
2022-12-03T23:34:04.727Z,101499.91
2022-12-03T23:36:36.339Z,101506.10
2022-12-03T23:39:06.728Z,101504.37
2022-12-03T23:41:38.250Z,101507.03
2022-12-03T23:44:08.727Z,101507.89
2022-12-03T23:46:40.944Z,101507.91
2022-12-03T23:49:11.624Z,101507.89
2022-12-03T23:51:42.159Z,101505.24
2022-12-03T23:54:13.790Z,101501.72
2022-12-03T23:56:44.331Z,101503.50
2022-12-03T23:59:16.173Z,101507.00
